sensor_id;sensor_type;location;lat;lon;timestamp;noise_LAeq;noise_LA_min;noise_LA_max;noise_LA01;noise_LA95
66888;Laerm;67239;51.680;5.976;2023-05-07T00:00:20;34.89;30.32;53.67;;
66888;Laerm;67239;51.680;5.976;2023-05-07T00:02:47;33.05;29.87;39.90;;
66888;Laerm;67239;51.680;5.976;2023-05-07T00:05:16;57.18;30.78;73.68;;
66888;Laerm;67239;51.680;5.976;2023-05-07T00:07:43;56.76;28.83;74.31;;
66888;Laerm;67239;51.680;5.976;2023-05-07T00:10:10;61.08;30.12;79.14;;
66888;Laerm;67239;51.680;5.976;2023-05-07T00:12:40;32.65;29.41;38.87;;
66888;Laerm;67239;51.680;5.976;2023-05-07T00:15:08;32.17;28.74;40.13;;
66888;Laerm;67239;51.680;5.976;2023-05-07T00:17:36;30.64;28.19;35.38;;
66888;Laerm;67239;51.680;5.976;2023-05-07T00:20:04;31.23;27.66;38.46;;
66888;Laerm;67239;51.680;5.976;2023-05-07T00:22:32;33.14;28.52;39.68;;
66888;Laerm;67239;51.680;5.976;2023-05-07T00:24:59;32.00;28.36;39.24;;
66888;Laerm;67239;51.680;5.976;2023-05-07T00:27:27;36.40;29.30;51.28;;
66888;Laerm;67239;51.680;5.976;2023-05-07T00:29:54;32.20;28.73;44.30;;
66888;Laerm;67239;51.680;5.976;2023-05-07T00:32:21;52.89;28.79;70.16;;
66888;Laerm;67239;51.680;5.976;2023-05-07T00:34:48;32.49;28.65;38.97;;
66888;Laerm;67239;51.680;5.976;2023-05-07T00:37:16;31.86;29.04;41.16;;
66888;Laerm;67239;51.680;5.976;2023-05-07T00:39:43;34.16;29.58;39.82;;
66888;Laerm;67239;51.680;5.976;2023-05-07T00:42:10;37.83;29.79;54.54;;
66888;Laerm;67239;51.680;5.976;2023-05-07T00:44:37;35.43;29.27;44.02;;
66888;Laerm;67239;51.680;5.976;2023-05-07T00:47:04;62.06;30.69;79.36;;
66888;Laerm;67239;51.680;5.976;2023-05-07T00:49:39;31.60;28.30;37.76;;
66888;Laerm;67239;51.680;5.976;2023-05-07T00:52:09;31.10;27.96;38.70;;
66888;Laerm;67239;51.680;5.976;2023-05-07T00:54:40;31.68;28.79;41.98;;
66888;Laerm;67239;51.680;5.976;2023-05-07T00:57:09;60.33;29.43;76.11;;
66888;Laerm;67239;51.680;5.976;2023-05-07T00:59:37;56.64;29.22;74.86;;
66888;Laerm;67239;51.680;5.976;2023-05-07T01:02:05;33.46;28.15;45.65;;
66888;Laerm;67239;51.680;5.976;2023-05-07T01:04:32;33.75;29.84;41.61;;
66888;Laerm;67239;51.680;5.976;2023-05-07T01:07:01;53.68;31.24;72.30;;
66888;Laerm;67239;51.680;5.976;2023-05-07T01:09:29;59.55;30.71;79.53;;
66888;Laerm;67239;51.680;5.976;2023-05-07T01:11:57;33.51;30.04;38.72;;
66888;Laerm;67239;51.680;5.976;2023-05-07T01:14:25;59.64;28.29;78.14;;
66888;Laerm;67239;51.680;5.976;2023-05-07T01:16:53;30.61;28.24;37.35;;
66888;Laerm;67239;51.680;5.976;2023-05-07T01:19:23;57.74;28.30;75.35;;
66888;Laerm;67239;51.680;5.976;2023-05-07T01:21:51;55.06;28.73;73.84;;
66888;Laerm;67239;51.680;5.976;2023-05-07T01:24:21;36.65;29.23;59.40;;
66888;Laerm;67239;51.680;5.976;2023-05-07T01:26:47;32.64;28.47;37.92;;
66888;Laerm;67239;51.680;5.976;2023-05-07T01:29:16;57.97;28.42;78.69;;
66888;Laerm;67239;51.680;5.976;2023-05-07T01:31:45;56.39;29.27;73.18;;
66888;Laerm;67239;51.680;5.976;2023-05-07T01:34:16;43.09;29.14;65.02;;
66888;Laerm;67239;51.680;5.976;2023-05-07T01:36:45;48.56;30.53;68.16;;
66888;Laerm;67239;51.680;5.976;2023-05-07T01:39:13;58.62;30.42;77.04;;
66888;Laerm;67239;51.680;5.976;2023-05-07T01:41:41;47.98;27.84;68.13;;
66888;Laerm;67239;51.680;5.976;2023-05-07T01:44:12;48.66;28.37;71.10;;
66888;Laerm;67239;51.680;5.976;2023-05-07T01:46:40;46.45;28.31;66.45;;
66888;Laerm;67239;51.680;5.976;2023-05-07T01:49:08;48.05;28.51;66.78;;
66888;Laerm;67239;51.680;5.976;2023-05-07T01:51:35;45.27;28.94;65.04;;
66888;Laerm;67239;51.680;5.976;2023-05-07T01:54:03;41.50;27.99;61.90;;
66888;Laerm;67239;51.680;5.976;2023-05-07T01:56:31;47.84;29.04;66.15;;
66888;Laerm;67239;51.680;5.976;2023-05-07T01:58:58;47.46;29.35;68.60;;
66888;Laerm;67239;51.680;5.976;2023-05-07T02:01:25;49.67;28.99;70.46;;
66888;Laerm;67239;51.680;5.976;2023-05-07T02:03:53;58.74;29.43;75.98;;
66888;Laerm;67239;51.680;5.976;2023-05-07T02:06:24;58.23;29.08;76.45;;
66888;Laerm;67239;51.680;5.976;2023-05-07T02:08:55;40.57;29.71;61.10;;
66888;Laerm;67239;51.680;5.976;2023-05-07T02:11:22;41.18;28.65;61.74;;
66888;Laerm;67239;51.680;5.976;2023-05-07T02:13:50;40.94;28.55;63.18;;
66888;Laerm;67239;51.680;5.976;2023-05-07T02:16:17;40.40;30.00;58.45;;
66888;Laerm;67239;51.680;5.976;2023-05-07T02:18:44;42.28;30.75;63.28;;
66888;Laerm;67239;51.680;5.976;2023-05-07T02:21:11;46.44;30.92;66.84;;
66888;Laerm;67239;51.680;5.976;2023-05-07T02:23:38;49.17;29.87;68.42;;
66888;Laerm;67239;51.680;5.976;2023-05-07T02:26:06;48.26;29.58;68.86;;
66888;Laerm;67239;51.680;5.976;2023-05-07T02:28:33;47.24;29.73;69.22;;
66888;Laerm;67239;51.680;5.976;2023-05-07T02:31:04;48.93;29.77;68.43;;
66888;Laerm;67239;51.680;5.976;2023-05-07T02:33:31;50.51;29.77;67.00;;
66888;Laerm;67239;51.680;5.976;2023-05-07T02:36:10;49.86;29.62;69.70;;
66888;Laerm;67239;51.680;5.976;2023-05-07T02:38:53;47.36;29.95;66.88;;
66888;Laerm;67239;51.680;5.976;2023-05-07T02:41:20;54.86;29.47;71.43;;
66888;Laerm;67239;51.680;5.976;2023-05-07T02:43:48;54.48;29.16;71.45;;
66888;Laerm;67239;51.680;5.976;2023-05-07T02:46:15;44.76;30.87;64.08;;
66888;Laerm;67239;51.680;5.976;2023-05-07T02:48:46;47.20;29.84;66.70;;
66888;Laerm;67239;51.680;5.976;2023-05-07T02:51:14;47.79;29.67;66.78;;
66888;Laerm;67239;51.680;5.976;2023-05-07T02:53:42;49.37;30.67;68.22;;
66888;Laerm;67239;51.680;5.976;2023-05-07T02:56:09;46.03;30.20;67.19;;
66888;Laerm;67239;51.680;5.976;2023-05-07T02:58:36;39.09;30.95;51.55;;
66888;Laerm;67239;51.680;5.976;2023-05-07T03:01:05;44.39;31.39;64.83;;
66888;Laerm;67239;51.680;5.976;2023-05-07T03:03:40;51.38;30.96;67.02;;
66888;Laerm;67239;51.680;5.976;2023-05-07T03:06:07;52.61;31.50;68.74;;
66888;Laerm;67239;51.680;5.976;2023-05-07T03:08:34;52.10;33.14;70.80;;
66888;Laerm;67239;51.680;5.976;2023-05-07T03:11:01;60.41;35.42;77.58;;
66888;Laerm;67239;51.680;5.976;2023-05-07T03:13:28;54.17;33.42;74.47;;
66888;Laerm;67239;51.680;5.976;2023-05-07T03:15:56;57.26;33.97;72.01;;
66888;Laerm;67239;51.680;5.976;2023-05-07T03:18:23;58.24;33.82;73.45;;
66888;Laerm;67239;51.680;5.976;2023-05-07T03:20:51;51.74;32.97;66.16;;
66888;Laerm;67239;51.680;5.976;2023-05-07T03:23:18;52.34;34.69;67.83;;
66888;Laerm;67239;51.680;5.976;2023-05-07T03:25:48;59.34;33.51;78.37;;
66888;Laerm;67239;51.680;5.976;2023-05-07T03:28:15;63.46;33.04;79.93;;
66888;Laerm;67239;51.680;5.976;2023-05-07T03:30:48;53.85;35.22;70.75;;
66888;Laerm;67239;51.680;5.976;2023-05-07T03:33:16;58.39;34.20;75.15;;
66888;Laerm;67239;51.680;5.976;2023-05-07T03:35:43;50.50;34.52;72.72;;
66888;Laerm;67239;51.680;5.976;2023-05-07T03:38:11;58.88;35.20;79.09;;
66888;Laerm;67239;51.680;5.976;2023-05-07T03:40:38;60.41;34.09;73.47;;
66888;Laerm;67239;51.680;5.976;2023-05-07T03:43:05;54.65;32.95;70.90;;
66888;Laerm;67239;51.680;5.976;2023-05-07T03:45:35;55.71;33.25;74.47;;
66888;Laerm;67239;51.680;5.976;2023-05-07T03:48:16;61.22;33.25;78.30;;
66888;Laerm;67239;51.680;5.976;2023-05-07T03:50:44;59.40;33.37;73.95;;
66888;Laerm;67239;51.680;5.976;2023-05-07T03:53:11;61.40;32.27;79.21;;
66888;Laerm;67239;51.680;5.976;2023-05-07T03:55:39;50.22;32.04;66.60;;
66888;Laerm;67239;51.680;5.976;2023-05-07T03:58:06;50.33;32.06;66.37;;
66888;Laerm;67239;51.680;5.976;2023-05-07T04:00:33;46.60;31.80;62.30;;
66888;Laerm;67239;51.680;5.976;2023-05-07T04:03:14;60.35;32.93;80.29;;
66888;Laerm;67239;51.680;5.976;2023-05-07T04:05:41;65.36;33.89;78.52;;
66888;Laerm;67239;51.680;5.976;2023-05-07T04:08:09;48.91;32.81;63.57;;
66888;Laerm;67239;51.680;5.976;2023-05-07T04:10:42;60.40;33.50;78.02;;
66888;Laerm;67239;51.680;5.976;2023-05-07T04:13:10;56.19;32.09;76.44;;
66888;Laerm;67239;51.680;5.976;2023-05-07T04:15:37;59.80;31.57;73.65;;
66888;Laerm;67239;51.680;5.976;2023-05-07T04:18:08;46.68;31.64;59.94;;
66888;Laerm;67239;51.680;5.976;2023-05-07T04:20:37;54.20;31.54;71.57;;
66888;Laerm;67239;51.680;5.976;2023-05-07T04:23:08;56.19;34.04;74.58;;
66888;Laerm;67239;51.680;5.976;2023-05-07T04:25:35;47.94;32.61;60.79;;
66888;Laerm;67239;51.680;5.976;2023-05-07T04:28:11;57.47;33.15;75.02;;
66888;Laerm;67239;51.680;5.976;2023-05-07T04:30:40;60.56;34.04;78.42;;
66888;Laerm;67239;51.680;5.976;2023-05-07T04:33:09;61.55;32.80;78.94;;
66888;Laerm;67239;51.680;5.976;2023-05-07T04:35:39;59.38;33.04;77.59;;
66888;Laerm;67239;51.680;5.976;2023-05-07T04:38:07;57.66;33.08;75.83;;
66888;Laerm;67239;51.680;5.976;2023-05-07T04:40:36;59.10;33.53;78.40;;
66888;Laerm;67239;51.680;5.976;2023-05-07T04:43:04;49.64;34.07;66.27;;
66888;Laerm;67239;51.680;5.976;2023-05-07T04:45:36;44.76;33.10;59.01;;
66888;Laerm;67239;51.680;5.976;2023-05-07T04:48:04;49.34;33.06;67.26;;
66888;Laerm;67239;51.680;5.976;2023-05-07T04:50:32;49.96;35.47;64.09;;
66888;Laerm;67239;51.680;5.976;2023-05-07T04:53:02;53.88;34.67;68.65;;
66888;Laerm;67239;51.680;5.976;2023-05-07T04:55:30;56.91;32.35;75.10;;
66888;Laerm;67239;51.680;5.976;2023-05-07T04:57:57;60.42;31.64;79.03;;
66888;Laerm;67239;51.680;5.976;2023-05-07T05:00:25;48.40;32.74;63.73;;
66888;Laerm;67239;51.680;5.976;2023-05-07T05:02:54;53.30;31.18;69.23;;
66888;Laerm;67239;51.680;5.976;2023-05-07T05:05:22;48.43;31.01;61.81;;
66888;Laerm;67239;51.680;5.976;2023-05-07T05:07:52;56.23;32.98;70.95;;
66888;Laerm;67239;51.680;5.976;2023-05-07T05:10:21;50.84;32.43;67.02;;
66888;Laerm;67239;51.680;5.976;2023-05-07T05:12:51;48.90;33.12;64.73;;
66888;Laerm;67239;51.680;5.976;2023-05-07T05:15:19;48.80;33.19;61.37;;
66888;Laerm;67239;51.680;5.976;2023-05-07T05:17:46;61.45;32.94;77.40;;
66888;Laerm;67239;51.680;5.976;2023-05-07T05:20:14;59.69;32.71;80.08;;
66888;Laerm;67239;51.680;5.976;2023-05-07T05:22:42;43.67;32.67;59.93;;
66888;Laerm;67239;51.680;5.976;2023-05-07T05:25:11;46.33;32.65;60.64;;
66888;Laerm;67239;51.680;5.976;2023-05-07T05:27:39;60.02;33.40;77.22;;
66888;Laerm;67239;51.680;5.976;2023-05-07T05:30:09;60.61;33.62;78.44;;
66888;Laerm;67239;51.680;5.976;2023-05-07T05:32:38;47.88;34.26;62.44;;
66888;Laerm;67239;51.680;5.976;2023-05-07T05:35:07;45.73;31.37;62.45;;
66888;Laerm;67239;51.680;5.976;2023-05-07T05:37:35;42.82;30.79;56.54;;
66888;Laerm;67239;51.680;5.976;2023-05-07T05:40:25;61.15;31.29;77.61;;
66888;Laerm;67239;51.680;5.976;2023-05-07T05:42:53;47.35;31.74;60.28;;
66888;Laerm;67239;51.680;5.976;2023-05-07T05:45:22;59.02;33.66;78.19;;
66888;Laerm;67239;51.680;5.976;2023-05-07T05:47:50;58.26;31.47;77.10;;
66888;Laerm;67239;51.680;5.976;2023-05-07T05:50:18;50.06;30.83;65.28;;
66888;Laerm;67239;51.680;5.976;2023-05-07T05:52:47;58.92;31.56;78.92;;
66888;Laerm;67239;51.680;5.976;2023-05-07T05:55:16;59.45;31.91;80.05;;
66888;Laerm;67239;51.680;5.976;2023-05-07T05:57:44;47.82;31.70;65.13;;
66888;Laerm;67239;51.680;5.976;2023-05-07T06:00:13;58.49;31.96;79.27;;
66888;Laerm;67239;51.680;5.976;2023-05-07T06:02:46;47.31;31.36;61.17;;
66888;Laerm;67239;51.680;5.976;2023-05-07T06:05:20;47.29;32.34;59.81;;
66888;Laerm;67239;51.680;5.976;2023-05-07T06:07:51;57.77;31.71;81.22;;
66888;Laerm;67239;51.680;5.976;2023-05-07T06:10:19;49.86;31.11;63.78;;
66888;Laerm;67239;51.680;5.976;2023-05-07T06:12:46;59.13;32.49;76.26;;
66888;Laerm;67239;51.680;5.976;2023-05-07T06:15:13;48.48;32.26;62.70;;
66888;Laerm;67239;51.680;5.976;2023-05-07T06:17:41;61.06;31.73;79.92;;
66888;Laerm;67239;51.680;5.976;2023-05-07T06:20:10;48.22;31.87;61.57;;
66888;Laerm;67239;51.680;5.976;2023-05-07T06:22:38;46.60;31.27;59.73;;
66888;Laerm;67239;51.680;5.976;2023-05-07T06:25:07;59.56;32.03;76.70;;
66888;Laerm;67239;51.680;5.976;2023-05-07T06:27:34;57.70;32.41;74.17;;
66888;Laerm;67239;51.680;5.976;2023-05-07T06:30:01;53.44;31.30;71.09;;
66888;Laerm;67239;51.680;5.976;2023-05-07T06:32:29;51.93;31.57;74.19;;
66888;Laerm;67239;51.680;5.976;2023-05-07T06:34:56;58.15;33.48;77.04;;
66888;Laerm;67239;51.680;5.976;2023-05-07T06:37:23;62.13;33.02;78.17;;
66888;Laerm;67239;51.680;5.976;2023-05-07T06:39:56;57.37;31.16;76.90;;
66888;Laerm;67239;51.680;5.976;2023-05-07T06:42:26;64.20;32.50;81.84;;
66888;Laerm;67239;51.680;5.976;2023-05-07T06:44:58;61.42;33.84;78.58;;
66888;Laerm;67239;51.680;5.976;2023-05-07T06:47:29;60.09;32.40;77.44;;
66888;Laerm;67239;51.680;5.976;2023-05-07T06:49:56;51.65;31.62;67.92;;
66888;Laerm;67239;51.680;5.976;2023-05-07T06:52:27;58.09;32.45;75.43;;
66888;Laerm;67239;51.680;5.976;2023-05-07T06:54:54;65.90;33.17;83.13;;
66888;Laerm;67239;51.680;5.976;2023-05-07T06:57:24;59.86;32.95;79.09;;
66888;Laerm;67239;51.680;5.976;2023-05-07T06:59:51;61.27;32.20;77.89;;
66888;Laerm;67239;51.680;5.976;2023-05-07T07:02:19;55.54;32.18;75.85;;
66888;Laerm;67239;51.680;5.976;2023-05-07T07:04:48;63.31;36.00;79.36;;
66888;Laerm;67239;51.680;5.976;2023-05-07T07:07:16;64.43;36.22;78.62;;
66888;Laerm;67239;51.680;5.976;2023-05-07T07:09:45;66.05;32.96;82.64;;
66888;Laerm;67239;51.680;5.976;2023-05-07T07:12:15;61.26;32.63;76.80;;
66888;Laerm;67239;51.680;5.976;2023-05-07T07:14:49;63.14;35.19;75.97;;
66888;Laerm;67239;51.680;5.976;2023-05-07T07:17:16;56.45;31.79;75.25;;
66888;Laerm;67239;51.680;5.976;2023-05-07T07:19:43;66.47;32.44;80.37;;
66888;Laerm;67239;51.680;5.976;2023-05-07T07:22:10;63.38;34.09;76.55;;
66888;Laerm;67239;51.680;5.976;2023-05-07T07:24:38;65.73;32.98;84.28;;
66888;Laerm;67239;51.680;5.976;2023-05-07T07:27:07;63.25;33.72;78.48;;
66888;Laerm;67239;51.680;5.976;2023-05-07T07:29:34;63.08;33.08;80.34;;
66888;Laerm;67239;51.680;5.976;2023-05-07T07:32:02;61.29;34.28;75.11;;
66888;Laerm;67239;51.680;5.976;2023-05-07T07:34:31;66.55;34.67;79.83;;
66888;Laerm;67239;51.680;5.976;2023-05-07T07:36:59;64.74;34.86;81.32;;
66888;Laerm;67239;51.680;5.976;2023-05-07T07:39:36;64.72;34.04;82.79;;
66888;Laerm;67239;51.680;5.976;2023-05-07T07:42:05;59.96;36.14;75.46;;
66888;Laerm;67239;51.680;5.976;2023-05-07T07:44:33;64.15;34.06;77.62;;
66888;Laerm;67239;51.680;5.976;2023-05-07T07:47:05;68.79;35.05;85.53;;
66888;Laerm;67239;51.680;5.976;2023-05-07T07:49:33;75.14;40.59;87.73;;
66888;Laerm;67239;51.680;5.976;2023-05-07T07:52:03;74.23;38.29;88.58;;
66888;Laerm;67239;51.680;5.976;2023-05-07T07:54:32;65.35;37.42;80.50;;
66888;Laerm;67239;51.680;5.976;2023-05-07T07:57:00;65.40;36.24;78.86;;
66888;Laerm;67239;51.680;5.976;2023-05-07T07:59:33;64.61;35.49;77.01;;
66888;Laerm;67239;51.680;5.976;2023-05-07T08:02:00;65.83;47.02;79.57;;
66888;Laerm;67239;51.680;5.976;2023-05-07T08:04:29;63.79;43.70;77.79;;
66888;Laerm;67239;51.680;5.976;2023-05-07T08:07:00;61.19;34.22;76.40;;
66888;Laerm;67239;51.680;5.976;2023-05-07T08:09:29;57.47;33.74;73.92;;
66888;Laerm;67239;51.680;5.976;2023-05-07T08:11:58;64.53;34.75;79.27;;
66888;Laerm;67239;51.680;5.976;2023-05-07T08:14:26;64.11;33.85;78.99;;
66888;Laerm;67239;51.680;5.976;2023-05-07T08:17:03;63.04;33.77;79.03;;
66888;Laerm;67239;51.680;5.976;2023-05-07T08:19:31;65.42;36.67;77.78;;
66888;Laerm;67239;51.680;5.976;2023-05-07T08:22:03;61.32;33.76;74.52;;
66888;Laerm;67239;51.680;5.976;2023-05-07T08:24:31;60.62;33.57;77.23;;
66888;Laerm;67239;51.680;5.976;2023-05-07T08:26:59;69.85;36.58;85.69;;
66888;Laerm;67239;51.680;5.976;2023-05-07T08:29:26;67.19;39.33;79.98;;
66888;Laerm;67239;51.680;5.976;2023-05-07T08:31:56;65.22;35.31;78.15;;
66888;Laerm;67239;51.680;5.976;2023-05-07T08:34:23;65.69;37.01;79.41;;
66888;Laerm;67239;51.680;5.976;2023-05-07T08:36:52;63.72;36.18;77.55;;
66888;Laerm;67239;51.680;5.976;2023-05-07T08:39:22;64.06;35.16;79.61;;
66888;Laerm;67239;51.680;5.976;2023-05-07T08:41:55;61.03;35.44;80.50;;
66888;Laerm;67239;51.680;5.976;2023-05-07T08:44:26;63.36;35.70;76.88;;
66888;Laerm;67239;51.680;5.976;2023-05-07T08:46:59;63.54;34.16;78.99;;
66888;Laerm;67239;51.680;5.976;2023-05-07T08:49:29;57.84;32.86;77.40;;
66888;Laerm;67239;51.680;5.976;2023-05-07T08:51:56;65.31;35.30;77.23;;
66888;Laerm;67239;51.680;5.976;2023-05-07T08:54:25;61.05;33.59;80.11;;
66888;Laerm;67239;51.680;5.976;2023-05-07T08:56:53;66.30;35.77;80.51;;
66888;Laerm;67239;51.680;5.976;2023-05-07T08:59:21;67.11;36.79;82.14;;
66888;Laerm;67239;51.680;5.976;2023-05-07T09:01:48;65.85;39.36;81.39;;
66888;Laerm;67239;51.680;5.976;2023-05-07T09:04:16;63.92;34.26;79.22;;
66888;Laerm;67239;51.680;5.976;2023-05-07T09:06:44;63.51;34.64;77.53;;
66888;Laerm;67239;51.680;5.976;2023-05-07T09:09:17;67.47;33.47;84.86;;
66888;Laerm;67239;51.680;5.976;2023-05-07T09:11:46;66.54;39.67;91.84;;
66888;Laerm;67239;51.680;5.976;2023-05-07T09:14:15;65.03;36.75;79.13;;
66888;Laerm;67239;51.680;5.976;2023-05-07T09:16:46;55.61;33.43;70.24;;
66888;Laerm;67239;51.680;5.976;2023-05-07T09:19:13;65.44;37.61;75.85;;
66888;Laerm;67239;51.680;5.976;2023-05-07T09:21:44;63.55;34.05;77.07;;
66888;Laerm;67239;51.680;5.976;2023-05-07T09:24:15;63.70;35.99;79.70;;
66888;Laerm;67239;51.680;5.976;2023-05-07T09:26:43;64.54;38.31;80.82;;
66888;Laerm;67239;51.680;5.976;2023-05-07T09:29:11;61.61;37.14;74.58;;
66888;Laerm;67239;51.680;5.976;2023-05-07T09:31:39;65.75;39.72;79.42;;
66888;Laerm;67239;51.680;5.976;2023-05-07T09:34:09;66.20;37.16;79.91;;
66888;Laerm;67239;51.680;5.976;2023-05-07T09:36:39;65.07;32.74;81.71;;
66888;Laerm;67239;51.680;5.976;2023-05-07T09:39:07;59.47;33.55;75.83;;
66888;Laerm;67239;51.680;5.976;2023-05-07T09:41:44;62.84;35.83;79.29;;
66888;Laerm;67239;51.680;5.976;2023-05-07T09:44:34;63.32;36.14;78.60;;
66888;Laerm;67239;51.680;5.976;2023-05-07T09:47:08;63.53;35.67;80.13;;
66888;Laerm;67239;51.680;5.976;2023-05-07T09:49:47;62.64;37.02;79.41;;
66888;Laerm;67239;51.680;5.976;2023-05-07T09:52:19;63.86;36.98;79.51;;
66888;Laerm;67239;51.680;5.976;2023-05-07T09:54:52;62.62;35.55;76.87;;
66888;Laerm;67239;51.680;5.976;2023-05-07T09:57:23;66.63;44.55;78.60;;
66888;Laerm;67239;51.680;5.976;2023-05-07T09:59:57;64.48;36.88;79.97;;
66888;Laerm;67239;51.680;5.976;2023-05-07T10:02:30;66.62;42.01;78.24;;
66888;Laerm;67239;51.680;5.976;2023-05-07T10:04:58;66.28;39.80;77.80;;
66888;Laerm;67239;51.680;5.976;2023-05-07T10:07:30;64.28;38.22;76.01;;
66888;Laerm;67239;51.680;5.976;2023-05-07T10:10:06;65.56;35.33;80.20;;
66888;Laerm;67239;51.680;5.976;2023-05-07T10:12:38;64.38;35.19;78.90;;
66888;Laerm;67239;51.680;5.976;2023-05-07T10:15:13;66.63;36.25;79.45;;
66888;Laerm;67239;51.680;5.976;2023-05-07T10:17:44;63.82;37.42;77.59;;
66888;Laerm;67239;51.680;5.976;2023-05-07T10:20:12;65.62;36.24;78.59;;
66888;Laerm;67239;51.680;5.976;2023-05-07T10:22:46;66.66;39.42;80.76;;
66888;Laerm;67239;51.680;5.976;2023-05-07T10:25:30;68.31;39.40;81.47;;
66888;Laerm;67239;51.680;5.976;2023-05-07T10:28:10;66.26;40.03;80.01;;
66888;Laerm;67239;51.680;5.976;2023-05-07T10:31:08;64.87;35.73;78.53;;
66888;Laerm;67239;51.680;5.976;2023-05-07T10:33:47;64.77;35.31;78.68;;
66888;Laerm;67239;51.680;5.976;2023-05-07T10:36:19;62.53;34.80;77.53;;
66888;Laerm;67239;51.680;5.976;2023-05-07T10:38:47;66.21;36.98;80.30;;
66888;Laerm;67239;51.680;5.976;2023-05-07T10:41:16;63.15;34.15;77.26;;
66888;Laerm;67239;51.680;5.976;2023-05-07T10:43:46;66.01;40.00;79.87;;
66888;Laerm;67239;51.680;5.976;2023-05-07T10:46:22;67.87;35.12;83.89;;
66888;Laerm;67239;51.680;5.976;2023-05-07T10:49:07;63.03;34.45;80.74;;
66888;Laerm;67239;51.680;5.976;2023-05-07T10:52:21;66.04;40.91;81.91;;
66888;Laerm;67239;51.680;5.976;2023-05-07T11:02:03;65.75;38.08;78.65;;
66888;Laerm;67239;51.680;5.976;2023-05-07T11:04:43;67.38;36.09;83.81;;
66888;Laerm;67239;51.680;5.976;2023-05-07T11:07:29;66.42;34.98;77.32;;
66888;Laerm;67239;51.680;5.976;2023-05-07T11:10:03;64.58;36.77;76.86;;
66888;Laerm;67239;51.680;5.976;2023-05-07T11:12:54;64.18;34.94;78.97;;
66888;Laerm;67239;51.680;5.976;2023-05-07T11:15:38;63.27;36.74;75.91;;
66888;Laerm;67239;51.680;5.976;2023-05-07T11:18:17;64.41;36.02;78.79;;
66888;Laerm;67239;51.680;5.976;2023-05-07T11:20:55;65.27;35.79;78.60;;
66888;Laerm;67239;51.680;5.976;2023-05-07T11:26:11;63.34;36.24;76.60;;
66888;Laerm;67239;51.680;5.976;2023-05-07T11:28:41;64.19;38.20;75.67;;
66888;Laerm;67239;51.680;5.976;2023-05-07T11:31:11;66.59;37.87;83.49;;
66888;Laerm;67239;51.680;5.976;2023-05-07T11:33:39;65.78;38.22;78.23;;
66888;Laerm;67239;51.680;5.976;2023-05-07T11:36:12;64.24;38.69;78.53;;
66888;Laerm;67239;51.680;5.976;2023-05-07T11:38:44;67.55;46.76;82.20;;
66888;Laerm;67239;51.680;5.976;2023-05-07T11:41:11;73.44;41.48;92.25;;
66888;Laerm;67239;51.680;5.976;2023-05-07T11:43:54;67.16;34.48;79.47;;
66888;Laerm;67239;51.680;5.976;2023-05-07T11:46:27;65.85;39.26;76.25;;
66888;Laerm;67239;51.680;5.976;2023-05-07T11:48:56;67.26;39.71;80.18;;
66888;Laerm;67239;51.680;5.976;2023-05-07T11:51:25;62.79;37.11;78.19;;
66888;Laerm;67239;51.680;5.976;2023-05-07T11:53:53;69.04;36.99;82.87;;
66888;Laerm;67239;51.680;5.976;2023-05-07T11:56:20;64.42;37.09;80.10;;
66888;Laerm;67239;51.680;5.976;2023-05-07T11:58:48;66.35;36.36;76.27;;
66888;Laerm;67239;51.680;5.976;2023-05-07T12:01:16;69.67;44.90;80.71;;
66888;Laerm;67239;51.680;5.976;2023-05-07T12:03:44;64.65;36.76;77.84;;
66888;Laerm;67239;51.680;5.976;2023-05-07T12:06:16;66.65;35.38;80.36;;
66888;Laerm;67239;51.680;5.976;2023-05-07T12:08:45;68.12;42.51;80.72;;
66888;Laerm;67239;51.680;5.976;2023-05-07T12:11:25;64.85;38.42;79.68;;
66888;Laerm;67239;51.680;5.976;2023-05-07T12:13:54;68.51;44.96;78.97;;
66888;Laerm;67239;51.680;5.976;2023-05-07T12:16:26;65.73;40.10;79.55;;
66888;Laerm;67239;51.680;5.976;2023-05-07T12:18:54;65.48;39.54;76.66;;
66888;Laerm;67239;51.680;5.976;2023-05-07T12:21:23;66.71;38.29;80.37;;
66888;Laerm;67239;51.680;5.976;2023-05-07T12:23:51;63.73;34.29;76.50;;
66888;Laerm;67239;51.680;5.976;2023-05-07T12:26:19;64.44;36.28;77.23;;
66888;Laerm;67239;51.680;5.976;2023-05-07T12:28:49;64.80;37.32;78.13;;
66888;Laerm;67239;51.680;5.976;2023-05-07T12:31:17;70.46;36.55;93.50;;
66888;Laerm;67239;51.680;5.976;2023-05-07T12:33:44;66.00;33.67;78.10;;
66888;Laerm;67239;51.680;5.976;2023-05-07T12:36:13;64.20;35.15;78.50;;
66888;Laerm;67239;51.680;5.976;2023-05-07T12:38:40;62.88;34.33;76.43;;
66888;Laerm;67239;51.680;5.976;2023-05-07T12:41:10;64.05;35.05;78.19;;
66888;Laerm;67239;51.680;5.976;2023-05-07T12:43:39;66.71;36.37;79.83;;
66888;Laerm;67239;51.680;5.976;2023-05-07T12:46:07;64.79;36.95;79.75;;
66888;Laerm;67239;51.680;5.976;2023-05-07T12:48:44;65.08;38.65;77.24;;
66888;Laerm;67239;51.680;5.976;2023-05-07T12:51:12;66.73;39.27;78.45;;
66888;Laerm;67239;51.680;5.976;2023-05-07T12:53:41;64.78;39.83;78.53;;
66888;Laerm;67239;51.680;5.976;2023-05-07T12:56:10;65.85;36.94;79.91;;
66888;Laerm;67239;51.680;5.976;2023-05-07T12:58:37;66.55;38.90;77.93;;
66888;Laerm;67239;51.680;5.976;2023-05-07T13:01:07;64.79;38.35;79.08;;
66888;Laerm;67239;51.680;5.976;2023-05-07T13:03:37;65.39;36.26;80.09;;
66888;Laerm;67239;51.680;5.976;2023-05-07T13:06:08;64.81;37.68;77.51;;
66888;Laerm;67239;51.680;5.976;2023-05-07T13:08:42;64.49;38.98;77.50;;
66888;Laerm;67239;51.680;5.976;2023-05-07T13:11:12;64.95;39.15;81.31;;
66888;Laerm;67239;51.680;5.976;2023-05-07T13:13:41;66.52;38.61;77.77;;
66888;Laerm;67239;51.680;5.976;2023-05-07T13:16:10;64.85;40.28;77.01;;
66888;Laerm;67239;51.680;5.976;2023-05-07T13:18:39;63.96;36.38;76.31;;
66888;Laerm;67239;51.680;5.976;2023-05-07T13:21:07;66.88;39.09;78.91;;
66888;Laerm;67239;51.680;5.976;2023-05-07T13:23:34;71.26;38.34;92.17;;
66888;Laerm;67239;51.680;5.976;2023-05-07T13:26:01;63.21;37.82;76.27;;
66888;Laerm;67239;51.680;5.976;2023-05-07T13:28:37;63.23;36.48;77.02;;
66888;Laerm;67239;51.680;5.976;2023-05-07T13:31:04;64.58;39.04;76.94;;
66888;Laerm;67239;51.680;5.976;2023-05-07T13:33:31;65.18;35.27;78.73;;
66888;Laerm;67239;51.680;5.976;2023-05-07T13:35:58;63.29;35.40;76.45;;
66888;Laerm;67239;51.680;5.976;2023-05-07T13:38:27;66.29;40.49;80.63;;
66888;Laerm;67239;51.680;5.976;2023-05-07T13:40:54;67.04;43.27;82.24;;
66888;Laerm;67239;51.680;5.976;2023-05-07T13:43:21;64.03;37.66;76.96;;
66888;Laerm;67239;51.680;5.976;2023-05-07T13:45:48;64.56;37.91;79.64;;
66888;Laerm;67239;51.680;5.976;2023-05-07T13:48:15;60.85;36.87;74.33;;
66888;Laerm;67239;51.680;5.976;2023-05-07T13:50:42;66.51;40.67;79.61;;
66888;Laerm;67239;51.680;5.976;2023-05-07T13:53:09;67.41;38.74;79.70;;
66888;Laerm;67239;51.680;5.976;2023-05-07T13:55:37;67.40;38.59;78.49;;
66888;Laerm;67239;51.680;5.976;2023-05-07T13:58:04;60.16;33.90;72.66;;
66888;Laerm;67239;51.680;5.976;2023-05-07T14:00:33;61.63;35.44;74.34;;
66888;Laerm;67239;51.680;5.976;2023-05-07T14:03:00;65.61;34.85;80.15;;
66888;Laerm;67239;51.680;5.976;2023-05-07T14:05:28;64.50;34.84;78.12;;
66888;Laerm;67239;51.680;5.976;2023-05-07T14:07:57;64.99;37.64;78.31;;